Merry Christmas and Happy New Year!

 

Sretan Božić i Nova godina!

 

METAR

METAR LDZA 052230Z VRB02KT 9999 OVC027 17/16 Q1016 NOSIG =
METAR LDSP 052230Z AUTO 06010KT 020V080 CAVOK 24/12 Q1010=
METAR LDDU 052230Z 26006KT 230V290 CAVOK 22/17 Q1009 =
METAR LDZD 052230Z 05006KT 020V080 9999 FEW040 18/14 Q1012 =
METAR LDPL 052230Z 04007KT 010V070 9999 FEW035 21/14 Q1014=
METAR LDOS 052230Z VRB02KT 5000 -RA BR BKN005 OVC030 20/19 Q1015
RERA=
METAR LDRI 052230Z 03012KT 320V100 9999 FEW023 SCT047 21/14 Q1014=

TAF

TAF AMD LDZA 052005Z 0520/0618 02005KT 9999 BKN030
                     TX24/0613Z TN16/0603Z
        PROB40 TEMPO 0520/0608 RA BKN014
        PROB30 TEMPO 0522/0604 4000 TSRA SCT020 FEW030CB OVC035
               BECMG 0603/0605 02010KT=
TAF LDSP 051730Z 0518/0618 03009KT 9999 SCT050
                 TX28/0612Z TN20/0604Z
    PROB40 TEMPO 0520/0606 31010KT
           TEMPO 0611/0615 23007KT
    PROB30 TEMPO 0613/0615 TS FEW040CB=
TAF LDDU 051730Z 0518/0618 09007KT 9999 FEW027
                 TX26/0610Z TN21/0604Z
           BECMG 0607/0609 19008KT
    PROB30 TEMPO 0611/0616 07012KT -TSRA FEW025CB SCT027=
TAF LDZD 051730Z 0518/0618 06010KT 9999 SCT050
                 TX28/0613Z TN17/0603Z
           BECMG 0520/0522 04005KT
           BECMG 0604/0606 06009KT
           BECMG 0610/0612 07014KT=
TAF LDPL 051725Z 0518/0618 06015KT CAVOK
                 TX27/0613Z TN19/0603Z
    PROB30 TEMPO 0606/0618 06018G30KT=
TAF LDOS 051725Z 0518/0618 02008KT 9999 SCT013 BKN030
                 TX25/0613Z TN18/0603Z
           TEMPO 0518/0521 30010KT
    PROB40 TEMPO 0518/0606 RA BKN006
    PROB30 TEMPO 0518/0600 4000 TSRA SCT020 FEW030CB BKN035=
TAF LDRI 051725Z 0518/0618 05012KT 9999 SCT050
                 TX26/0613Z TN19/0603Z
    PROB40 TEMPO 0518/0610 VRB18G38KT=

SIGMET

LDZO SIGMET U07 VALID 052000/060000 LDZA-
LDZO ZAGREB FIR SEV TURB FCST WI N4444 E01316 - N4525 E01318 - N4541
E01439 - N4403 E01548 - N4406 E01352 - N4444 E01316 SFC/6000FT STNR
NC=

AIRMET

LDZO AIRMET 22 VALID 052000/060000 LDZA-
LDZO ZAGREB FIR MOD TURB FCST WI N4635 E01629 - N4555 E01734 - N4411
E01542 - N4540 E01435 - N4635 E01629 2000/6000FT STNR NC=
LDZO AIRMET 23 VALID 052000/060000 LDZA-
LDZO ZAGREB FIR MT OBSC OBS WI N4353 E01637 - N4409 E01538 - N4439
E01453 - N4504 E01456 - N4529 E01415 - N4631 E01627 - N4524 E01814 -
N4353 E01637 ABV 2000FT STNR NC=

Remark

Ukoliko se brzina i smjer vjetra ne mogu odrediti zbog privremenog kvara sustava/indikatora,
informacija o vjetru u METAR izvješću bit će prikazana kao "/////KT".

 

Disclaimer

 

In case of temporary system/sensor failure, wind speed and direction data will be represented as "/////KT" in METAR report.

 

If you cannot log in with your user account, please contact stjepko.jancijev@crocontrol.hr.
Specifically, the website deactivates user accounts that have not been used for more than 365 days, so they must be reactivated.
 

         

      Politika MET podataka      

 

Ukoliko se svojim korisničkim računom ne možete logirati na web stranicu, molim vas da se obratite na stjepko.jancijev@crocontrol.hr.

Naime, web stranica deaktivira korisničke račune koji nisu korišteni više od 365 dana te ih je potrebno ponovno aktivirati.